createdAt,value
2022-10-17T00:03:00.418Z,89.22
2022-10-17T00:08:03.062Z,89.41
2022-10-17T00:13:07.569Z,89.68
2022-10-17T00:18:10.160Z,89.55
2022-10-17T00:23:12.890Z,89.73
2022-10-17T00:28:17.144Z,89.88
2022-10-17T00:33:19.728Z,89.84
2022-10-17T00:38:22.416Z,89.91
2022-10-17T00:43:26.644Z,90.01
2022-10-17T00:48:29.336Z,89.86
2022-10-17T00:53:32.017Z,89.83
2022-10-17T00:58:36.051Z,89.85
2022-10-17T01:03:38.693Z,90.07
2022-10-17T01:08:41.784Z,90.54
2022-10-17T01:13:48.061Z,90.42
2022-10-17T01:18:57.675Z,90.47
2022-10-17T01:24:15.863Z,90.56
2022-10-17T01:29:57.082Z,90.67
2022-10-17T01:35:05.171Z,90.50
2022-10-17T01:40:11.357Z,90.42
2022-10-17T01:45:16.614Z,90.29
2022-10-17T01:50:24.928Z,89.98
2022-10-17T01:55:32.055Z,90.17
2022-10-17T02:00:35.932Z,89.93
2022-10-17T02:05:42.120Z,89.86
2022-10-17T02:10:50.522Z,89.72
2022-10-17T02:16:06.271Z,89.62
2022-10-17T02:21:16.742Z,89.29
2022-10-17T02:26:22.671Z,89.50
2022-10-17T02:31:27.928Z,89.63
2022-10-17T02:36:34.876Z,89.98
2022-10-17T02:41:38.877Z,90.17
2022-10-17T02:46:42.788Z,90.02
2022-10-17T02:51:52.689Z,90.13
2022-10-17T02:56:58.729Z,89.97
2022-10-17T03:02:04.592Z,90.33
2022-10-17T03:07:08.635Z,90.09
2022-10-17T03:12:11.566Z,89.60
2022-10-17T03:17:14.425Z,89.39
2022-10-17T03:22:18.483Z,89.33
2022-10-17T03:27:22.741Z,89.05
2022-10-17T03:32:25.626Z,88.91
2022-10-17T03:37:29.903Z,88.82
2022-10-17T03:42:33.258Z,88.78
2022-10-17T03:47:36.694Z,88.91
2022-10-17T03:52:40.874Z,88.93
2022-10-17T03:57:45.685Z,88.84
2022-10-17T04:02:49.720Z,89.10
2022-10-17T04:07:57.823Z,89.28
2022-10-17T04:13:22.466Z,89.03
2022-10-17T04:18:25.712Z,88.67
2022-10-17T04:23:29.796Z,88.62
2022-10-17T04:33:42.804Z,88.47
2022-10-17T04:38:47.083Z,88.10
2022-10-17T04:43:51.233Z,88.14
2022-10-17T04:48:55.805Z,87.94
2022-10-17T04:53:59.864Z,87.97
2022-10-17T04:59:02.722Z,88.07
2022-10-17T05:04:05.670Z,88.18
2022-10-17T05:09:09.868Z,87.89
2022-10-17T05:14:12.921Z,87.97
2022-10-17T05:19:15.655Z,88.01
2022-10-17T05:24:23.867Z,87.99
2022-10-17T05:29:26.638Z,87.82
2022-10-17T05:34:38.280Z,87.87
2022-10-17T05:39:42.839Z,87.63
2022-10-17T05:44:46.131Z,87.56
2022-10-17T05:49:52.452Z,87.61
2022-10-17T05:55:02.897Z,87.46
2022-10-17T06:00:07.311Z,87.31
2022-10-17T06:05:20.077Z,87.31
2022-10-17T06:10:24.326Z,87.23
2022-10-17T06:15:27.098Z,87.11
2022-10-17T06:20:45.339Z,86.99
2022-10-17T06:25:51.636Z,86.64
2022-10-17T06:30:54.399Z,86.43
2022-10-17T06:35:58.005Z,86.37
2022-10-17T06:41:08.609Z,85.99
2022-10-17T06:46:11.390Z,85.63
2022-10-17T06:51:17.739Z,85.62
2022-10-17T06:56:26.364Z,85.36
2022-10-17T07:01:46.282Z,85.08
2022-10-17T07:06:50.543Z,85.05
2022-10-17T07:11:58.640Z,84.64
2022-10-17T07:17:01.539Z,84.54
2022-10-17T07:22:07.171Z,84.42
2022-10-17T07:27:13.807Z,84.18
2022-10-17T07:32:16.601Z,84.11
2022-10-17T07:37:19.261Z,83.92
2022-10-17T07:42:30.024Z,83.85
2022-10-17T07:47:35.678Z,83.43
2022-10-17T07:52:39.423Z,83.44
2022-10-17T07:57:43.569Z,83.04
2022-10-17T08:02:46.313Z,82.91
2022-10-17T08:07:49.011Z,82.64
2022-10-17T08:12:52.967Z,82.49
2022-10-17T08:17:55.902Z,82.12
2022-10-17T08:22:58.597Z,82.06
2022-10-17T08:28:02.851Z,81.96
2022-10-17T08:33:06.258Z,81.71
2022-10-17T08:38:12.249Z,81.66
2022-10-17T08:43:33.266Z,81.35
2022-10-17T08:48:44.066Z,80.74
2022-10-17T08:53:51.906Z,80.11
2022-10-17T08:58:55.910Z,79.93
2022-10-17T09:04:07.852Z,79.23
2022-10-17T09:09:19.588Z,78.55
2022-10-17T09:14:38.009Z,78.59
2022-10-17T09:19:42.739Z,77.97
2022-10-17T09:24:48.734Z,77.30
2022-10-17T09:29:55.962Z,77.16
2022-10-17T09:34:58.826Z,76.85
2022-10-17T09:40:01.452Z,76.59
2022-10-17T09:45:18.623Z,76.17
2022-10-17T09:50:22.946Z,75.58
2022-10-17T09:55:31.106Z,75.17
2022-10-17T10:00:36.497Z,74.82
2022-10-17T10:05:39.448Z,74.69
2022-10-17T10:10:43.139Z,73.94
2022-10-17T10:15:48.928Z,73.77
2022-10-17T10:21:04.975Z,72.83
2022-10-17T10:26:21.055Z,72.61
2022-10-17T10:31:30.700Z,71.94
2022-10-17T10:36:59.483Z,71.41
2022-10-17T10:42:03.342Z,70.67
2022-10-17T10:47:17.652Z,69.71
2022-10-17T10:52:33.961Z,69.48
2022-10-17T10:57:38.580Z,69.17
2022-10-17T11:02:49.731Z,69.22
2022-10-17T11:07:56.105Z,68.55
2022-10-17T11:13:02.544Z,67.73
2022-10-17T11:18:08.462Z,67.80
2022-10-17T11:23:21.359Z,66.46
2022-10-17T11:28:24.844Z,65.11
2022-10-17T11:33:35.407Z,63.71
2022-10-17T11:38:42.965Z,63.72
2022-10-17T11:43:51.227Z,63.47
2022-10-17T11:49:02.185Z,63.24
2022-10-17T11:54:09.890Z,62.30
2022-10-17T11:59:30.235Z,61.25
2022-10-17T12:04:44.847Z,61.83
2022-10-17T12:09:55.779Z,61.17
2022-10-17T12:15:30.078Z,61.45
2022-10-17T12:20:36.129Z,60.69
2022-10-17T12:25:49.629Z,60.04
2022-10-17T12:30:56.066Z,59.85
2022-10-17T12:36:50.162Z,60.04
2022-10-17T12:41:57.018Z,59.64
2022-10-17T12:47:00.233Z,60.12
2022-10-17T12:52:16.830Z,60.06
2022-10-17T12:57:24.130Z,60.34
2022-10-17T13:02:28.569Z,60.45
2022-10-17T13:07:31.570Z,60.34
2022-10-17T13:12:41.166Z,59.76
2022-10-17T13:17:44.199Z,59.75
2022-10-17T13:22:47.032Z,60.15
2022-10-17T13:27:53.647Z,60.42
2022-10-17T13:32:56.560Z,60.13
2022-10-17T13:38:01.973Z,59.68
2022-10-17T13:43:06.208Z,59.99
2022-10-17T13:48:19.860Z,60.10
2022-10-17T13:53:27.534Z,60.32
2022-10-17T13:58:42.818Z,60.35
2022-10-17T14:03:48.916Z,60.88
2022-10-17T14:08:56.322Z,61.01
2022-10-17T14:14:01.563Z,60.95
2022-10-17T14:19:05.630Z,61.10
2022-10-17T14:24:17.425Z,60.92
2022-10-17T14:29:25.220Z,61.14
2022-10-17T14:34:32.116Z,60.92
2022-10-17T14:39:34.759Z,61.28
2022-10-17T14:44:38.970Z,60.99
2022-10-17T14:49:42.070Z,60.61
2022-10-17T14:54:46.509Z,60.06
2022-10-17T14:59:55.100Z,60.32
2022-10-17T15:04:58.484Z,60.11
2022-10-17T15:10:01.115Z,60.38
2022-10-17T15:15:05.619Z,60.71
2022-10-17T15:20:13.459Z,60.27
2022-10-17T15:25:16.401Z,59.91
2022-10-17T15:30:23.333Z,59.78
2022-10-17T15:35:26.285Z,59.98
2022-10-17T15:40:30.722Z,60.05
2022-10-17T15:45:35.869Z,60.60
2022-10-17T15:50:38.492Z,61.06
2022-10-17T15:55:41.254Z,61.70
2022-10-17T16:00:46.373Z,62.85
2022-10-17T16:05:49.127Z,63.53
2022-10-17T16:10:52.650Z,63.96
2022-10-17T16:15:56.639Z,64.62
2022-10-17T16:20:59.490Z,65.23
2022-10-17T16:26:02.339Z,65.94
2022-10-17T16:31:06.643Z,66.21
2022-10-17T16:36:10.310Z,66.74
2022-10-17T16:41:21.068Z,66.96
2022-10-17T16:46:26.507Z,67.27
2022-10-17T16:51:29.368Z,67.71
2022-10-17T16:56:32.795Z,67.96
2022-10-17T17:01:37.984Z,68.40
2022-10-17T17:06:40.660Z,68.97
2022-10-17T17:11:43.351Z,68.98
2022-10-17T17:16:47.336Z,69.59
2022-10-17T17:21:51.064Z,69.86
2022-10-17T17:26:55.132Z,70.29
2022-10-17T17:31:59.117Z,70.56
2022-10-17T17:37:01.744Z,70.73
2022-10-17T17:42:04.534Z,71.20
2022-10-17T17:47:08.523Z,71.00
2022-10-17T17:52:11.273Z,71.69
2022-10-17T17:57:13.956Z,71.94
2022-10-17T18:02:18.095Z,71.92
2022-10-17T18:07:20.920Z,72.31
2022-10-17T18:12:23.545Z,72.13
2022-10-17T18:17:27.630Z,72.67
2022-10-17T18:22:30.523Z,72.68
2022-10-17T18:27:33.335Z,72.38
2022-10-17T18:32:37.322Z,71.96
2022-10-17T18:42:47.560Z,72.65
2022-10-17T18:47:52.874Z,72.79
2022-10-17T18:52:55.636Z,72.77
2022-10-17T18:57:59.082Z,72.69
2022-10-17T19:03:04.177Z,73.08
2022-10-17T19:08:06.868Z,73.32
2022-10-17T19:13:10.048Z,73.66
2022-10-17T19:18:14.099Z,73.68
2022-10-17T19:23:16.695Z,73.90
2022-10-17T19:28:19.523Z,73.95
2022-10-17T19:33:23.590Z,74.13
2022-10-17T19:38:26.866Z,74.17
2022-10-17T19:43:29.567Z,74.25
2022-10-17T19:48:34.496Z,74.43
2022-10-17T19:53:37.176Z,74.67
2022-10-17T19:58:46.212Z,74.44
2022-10-17T20:03:50.607Z,74.33
2022-10-17T20:08:53.930Z,74.43
2022-10-17T20:13:57.618Z,74.58
2022-10-17T20:19:09.547Z,74.64
2022-10-17T20:24:14.549Z,74.86
2022-10-17T20:29:19.741Z,75.03
2022-10-17T20:34:23.852Z,75.02
2022-10-17T20:39:26.625Z,75.27
2022-10-17T20:44:29.219Z,75.13
2022-10-17T20:49:33.830Z,75.26
2022-10-17T20:54:36.482Z,75.10
2022-10-17T20:59:39.134Z,74.91
2022-10-17T21:04:47.265Z,74.65
2022-10-17T21:09:49.945Z,74.30
2022-10-17T21:14:52.526Z,74.20
2022-10-17T21:19:56.921Z,74.24
2022-10-17T21:24:59.544Z,74.22
2022-10-17T21:30:02.271Z,74.19
2022-10-17T21:35:07.395Z,74.10
2022-10-17T21:40:11.055Z,74.13
2022-10-17T21:45:15.771Z,74.69
2022-10-17T21:50:24.141Z,74.79
2022-10-17T21:55:26.778Z,74.53
2022-10-17T22:00:29.469Z,74.81
2022-10-17T22:05:33.491Z,74.83
2022-10-17T22:10:37.868Z,74.81
2022-10-17T22:15:40.467Z,75.08
2022-10-17T22:20:44.570Z,75.51
2022-10-17T22:25:54.107Z,75.74
2022-10-17T22:30:58.703Z,76.30
2022-10-17T22:36:03.014Z,76.50
2022-10-17T22:41:06.060Z,76.47
2022-10-17T22:46:09.269Z,76.61
2022-10-17T22:51:13.488Z,76.49
2022-10-17T22:56:18.519Z,76.35
2022-10-17T23:01:22.553Z,76.63
2022-10-17T23:06:26.663Z,76.72
2022-10-17T23:11:29.348Z,76.84
2022-10-17T23:16:31.972Z,77.03
2022-10-17T23:21:36.029Z,77.13
2022-10-17T23:26:38.638Z,77.36
2022-10-17T23:31:41.242Z,77.63
2022-10-17T23:36:45.255Z,77.87
2022-10-17T23:41:47.884Z,77.40
2022-10-17T23:46:50.541Z,77.91
2022-10-17T23:51:54.810Z,77.81
2022-10-17T23:56:57.781Z,77.87
